Historyczne dane pomiarowe

Dodano dane terminowe – wersja testowa.

Dane z okresu 1951-2019

Wersja bazy: 1.34 [2019-03-16, lista zmian], aktualizacja planowana na 2019-04-15

Dane meteo z obszaru Polski uzyskane na podstawie danych udostępnionych przez Instytut Meteorologii i Gospodarki Wodnej – Państwowy Instytut Badawczy.

 

Wybierz Datę:    

       

TemperaturaWilgotnośćWiatrCiśnienieOpadyŚniegCzas trwania zjawisk
 Stacja t tx tn tng RH VA  wxwx mslp ppp RRR   cm mm wxwxwxwxwxwxwx
1983-08-14 13.3 18.1 9.5 6.9 73.8- 6.0 5.0---- 0.0------------
1983-08-13 14.8 22.0 12.9 12.0 83.3- 6.0 6.7---- 0.5------------
1983-08-12 19.6 26.5 13.4 10.3 76.0- 1.3 1.0---- 6.9------------
1983-08-11 18.7 26.5 11.5 9.3 76.8- 2.3 0.3---- 0.0------------
1983-08-10 20.5 26.2 15.5 13.0 74.5- 2.7 0.7---- 0.0------------
1983-08-09 19.6 26.5 15.7 14.3 80.3- 5.3 2.0---- 0.4------------
1983-08-08 17.9 22.6 15.3 14.3 90.5- 6.7 2.3---- 0.8------------
1983-08-07 14.3 18.2 11.9 10.5 93.8- 8.0 1.7---- 2.8------------
1983-08-06 14.5 18.2 12.1 11.4 84.5- 7.3 0.7---- 0.6------------
1983-08-05 13.7 18.7 10.4 9.3 81.0- 6.0 2.7---- 0.0------------
1983-08-04 10.9 12.9 10.4 10.2 94.3- 8.0 7.3---- 1.6------------
1983-08-03 14.2 20.6 12.7 12.5 96.3- 8.0 6.3---- 8.8------------
1983-08-02 21.3 29.8 17.6 15.5 84.0- 5.7 0.3---- 3.1------------
1983-08-01 24.2 34.0 11.6 7.6 55.0- 0.0 2.7---- 0.0------------
1983-07-31 19.4 28.4 8.9 6.3 60.8- 0.0 1.0---- 0.0------------
1983-07-30 19.9 25.3 16.3 14.8 67.0- 4.0 5.0---- 0.0------------
1983-07-29 19.8 24.9 15.7 12.5 66.8- 7.0 4.0---- 2.5------------
1983-07-28 24.3 32.1 20.7 18.7 56.0- 4.7 2.7---- 0.0------------
1983-07-27 25.8 36.1 13.8 9.8 55.5- 0.7 0.7---- 0.0------------
1983-07-26 21.5 30.0 10.4 6.9 60.3- 0.0 0.3---- 0.0------------
1983-07-25 17.8 25.0 11.2 7.1 68.8- 4.0 1.7---- 0.0------------
1983-07-24 18.8 26.4 10.0 7.0 67.8- 3.0 2.0---- 0.0------------
1983-07-23 19.4 25.9 13.6 10.4 69.3- 4.0 3.7---- 0.0------------
1983-07-22 14.3 18.4 9.7 5.4 80.8- 7.7 4.3---- 0.4------------
1983-07-21 14.1 18.1 10.9 7.8 56.3- 3.0 5.0---- 0.0------------
1983-07-20 15.6 25.0 11.7 11.3 84.0- 6.7 3.3---- 6.8------------
1983-07-19 24.2 28.8 18.5 14.0 56.5- 3.0 3.3---- 4.7------------
1983-07-18 25.0 34.6 15.8 12.9 60.8- 1.0 1.3---- 0.0------------
1983-07-17 22.0 28.8 14.5 12.0 70.0- 1.7 0.3---- 0.0------------
1983-07-16 21.1 30.2 14.3 10.8 68.8- 4.0 2.0---- 5.2------------
1983-07-15 21.4 26.4 13.6 10.8 68.5- 4.7 2.0---- 0.0------------
1983-07-14 18.4 22.0 16.1 13.0 75.0- 7.0 4.7---- 0.0------------
1983-07-13 21.0 26.5 15.5 11.4 70.3- 4.3 4.3---- 0.0------------
1983-07-12 21.0 29.3 15.7 12.7 73.0- 5.3 3.7---- 7.0------------
1983-07-11 20.2 29.3 14.4 9.5 74.3- 4.3 3.0---- 0.5------------
1983-07-10 21.9 29.6 12.5 8.1 61.8- 0.7 1.0---- 0.0------------
1983-07-09 20.6 28.5 10.0 6.0 63.8- 0.3 0.3---- 0.0------------
1983-07-08 20.7 27.4 12.4 7.8 58.3- 0.0 1.7---- 0.0------------
1983-07-07 22.9 30.3 13.4 9.8 66.0- 0.7 1.7---- 0.0------------
1983-07-06 21.4 29.5 11.4 8.0 70.0- 0.0 0.7---- 0.0------------
1983-07-05 19.7 26.1 13.1 9.3 73.8- 0.0 1.3---- 0.0------------
1983-07-04 20.3 26.4 10.5 7.0 69.5- 1.0 0.7---- 0.0------------
1983-07-03 17.9 24.5 10.5 6.8 68.0- 2.3 0.3---- 0.0------------
1983-07-02 17.7 21.9 14.1 13.3 73.8- 4.0 2.7---- 0.0------------
1983-07-01 18.7 26.0 13.6 9.5 76.0- 4.3 2.0---- 0.9------------
1983-06-30 18.6 24.6 9.2 6.8 71.0- 1.0 1.3---- 0.0------------
1983-06-29 13.9 20.2 7.4 4.4 75.8- 3.3 1.7---- 0.0------------
1983-06-28 15.1 19.4 13.6 12.4 76.0- 5.7 3.3---- 0.0------------
1983-06-27 20.4 25.9 16.2 13.3 72.5- 4.7 3.0---- 6.1------------
1983-06-26 19.9 26.0 15.0 12.4 79.8- 4.3 1.3---- 0.4------------
1983-06-25 21.4 28.3 15.9 11.2 61.5- 2.7 3.0---- 2.4------------
1983-06-24 18.3 26.7 7.5 4.8 67.5- 0.0 1.0---- 0.0------------
1983-06-23 15.9 22.1 6.0 2.9 63.3- 0.0 1.7---- 0.0------------
1983-06-22 16.3 23.0 10.6 7.8 68.0- 1.3 2.0---- 0.0------------
1983-06-21 18.3 25.0 11.0 7.8 74.0- 0.7 1.0---- 0.0------------
1983-06-20 17.2 22.1 13.5 12.3 84.3- 6.3 2.0---- 0.0------------
1983-06-19 14.0 16.5 12.4 10.8 90.0- 8.0 3.3---- 8.4------------
1983-06-18 11.8 15.6 7.9 4.9 85.5- 8.0 3.3---- 0.0------------
1983-06-17 11.6 15.0 9.3 7.3 74.0- 6.7 3.0---- 0.0------------
1983-06-16 11.5 16.1 9.4 7.3 79.8- 6.7 7.0---- 0.0------------
575.8 ms

 

Źródłem pochodzenia danych jest Instytut Meteorologii i Gospodarki Wodnej – Państwowy Instytut Badawczy. Dane Instytutu Meteorologii i Gospodarki Wodnej – Państwowego Instytutu Badawczego zostały przetworzone.

Dane źródłowe można odnaleźć na stronie https://dane.imgw.pl